Time;durP1;ratioP1;P1;durP2;ratioP2;P2;SDS_P1;SDS_P2;PMS_P1;PMS_P2;Temp;Humidity;BMP_temperature;BMP_pressure;BME280_temperature;BME280_humidity;BME280_pressure;Samples;Min_cycle;Max_cycle;Signal;HPM_P1;HPM_P2
2022/10/19 00:00:45;;;;;;;20.53;19.10;;;;;;;;;;5114259;27;20445;-78
2022/10/19 00:03:13;;;;;;;20.23;19.00;;;;;;;;;;5114277;28;20452;-78
2022/10/19 00:05:40;;;;;;;20.47;18.87;;;;;;;;;;5137285;27;20453;-78
2022/10/19 00:08:07;;;;;;;20.30;19.10;;;;;;;;;;5155729;27;21098;-77
2022/10/19 00:10:35;;;;;;;21.63;20.10;;;;;;;;;;5156041;27;20449;-78
2022/10/19 00:13:02;;;;;;;22.73;19.63;;;;;;;;;;5154481;27;20474;-78
2022/10/19 00:15:29;;;;;;;21.53;20.13;;;;;;;;;;5155729;27;20917;-78
2022/10/19 00:17:58;;;;;;;24.00;22.00;;;;;;;;;;5154661;27;20428;-77
2022/10/19 00:20:25;;;;;;;19.70;18.60;;;;;;;;;;5155522;27;21218;-78
2022/10/19 00:22:53;;;;;;;20.40;18.90;;;;;;;;;;5155156;27;20493;-77
2022/10/19 00:25:20;;;;;;;20.90;18.87;;;;;;;;;;5155586;27;20423;-77
2022/10/19 00:27:47;;;;;;;19.80;18.60;;;;;;;;;;5155020;27;20838;-78
2022/10/19 00:30:15;;;;;;;19.90;18.80;;;;;;;;;;5155470;27;20424;-78
2022/10/19 00:32:42;;;;;;;20.83;19.33;;;;;;;;;;5154904;27;20914;-78
2022/10/19 00:35:11;;;;;;;19.90;18.63;;;;;;;;;;5155208;27;20434;-78
2022/10/19 00:37:38;;;;;;;20.93;19.23;;;;;;;;;;5154703;27;20466;-79
2022/10/19 00:40:06;;;;;;;20.80;19.60;;;;;;;;;;5155201;27;20430;-78
2022/10/19 00:42:34;;;;;;;21.70;20.00;;;;;;;;;;5154790;27;20815;-77
2022/10/19 00:45:05;;;;;;;20.53;19.23;;;;;;;;;;5155221;27;20445;-78
2022/10/19 00:47:32;;;;;;;20.70;19.50;;;;;;;;;;5155316;27;20469;-78
2022/10/19 00:50:00;;;;;;;21.50;19.90;;;;;;;;;;5155477;27;20431;-77
2022/10/19 00:52:28;;;;;;;20.37;18.87;;;;;;;;;;5153939;27;20940;-78
2022/10/19 00:54:57;;;;;;;20.87;19.57;;;;;;;;;;5155126;27;20852;-77
2022/10/19 00:57:25;;;;;;;20.90;19.50;;;;;;;;;;5155248;27;20423;-78
2022/10/19 00:59:52;;;;;;;20.80;19.40;;;;;;;;;;5154900;27;20937;-77
2022/10/19 01:02:20;;;;;;;22.00;20.33;;;;;;;;;;5154098;27;20416;-78
2022/10/19 01:04:50;;;;;;;22.07;20.57;;;;;;;;;;5154526;27;20911;-77
2022/10/19 01:07:18;;;;;;;21.93;20.40;;;;;;;;;;5154883;27;20439;-77
2022/10/19 01:09:47;;;;;;;22.20;20.30;;;;;;;;;;5154935;27;20416;-78
2022/10/19 01:12:25;;;;;;;22.10;20.43;;;;;;;;;;5154278;27;20428;-77
2022/10/19 01:15:00;;;;;;;21.63;19.70;;;;;;;;;;5154462;27;20408;-77
2022/10/19 01:17:32;;;;;;;21.27;20.07;;;;;;;;;;5154843;27;20411;-78
2022/10/19 01:20:25;;;;;;;21.00;19.77;;;;;;;;;;5154670;27;20436;-78
2022/10/19 01:23:00;;;;;;;21.43;19.77;;;;;;;;;;5153833;27;20849;-78
2022/10/19 01:25:38;;;;;;;21.17;19.73;;;;;;;;;;5154993;27;20451;-78
2022/10/19 01:28:14;;;;;;;20.70;19.30;;;;;;;;;;5155603;27;21072;-77
2022/10/19 01:30:48;;;;;;;21.30;19.77;;;;;;;;;;5161419;27;20932;-78
2022/10/19 01:33:25;;;;;;;21.33;20.03;;;;;;;;;;5160330;27;20970;-78
2022/10/19 01:35:56;;;;;;;21.70;20.00;;;;;;;;;;5161325;27;20809;-77
2022/10/19 01:38:28;;;;;;;21.33;19.80;;;;;;;;;;5161613;27;20403;-78
2022/10/19 01:40:58;;;;;;;21.10;19.47;;;;;;;;;;5161213;27;20434;-80
2022/10/19 01:43:33;;;;;;;22.53;20.47;;;;;;;;;;5161335;27;20468;-78
2022/10/19 01:46:06;;;;;;;21.60;20.00;;;;;;;;;;5160686;27;20480;-78
2022/10/19 01:48:35;;;;;;;21.83;20.43;;;;;;;;;;5161571;27;20440;-77
2022/10/19 01:51:05;;;;;;;20.53;19.33;;;;;;;;;;5160552;27;20920;-76
2022/10/19 01:53:35;;;;;;;22.20;20.80;;;;;;;;;;5160945;27;20443;-77
2022/10/19 01:56:04;;;;;;;21.50;19.90;;;;;;;;;;5161170;27;20446;-78
2022/10/19 01:58:33;;;;;;;21.37;19.73;;;;;;;;;;5161341;27;20424;-77
2022/10/19 02:01:04;;;;;;;21.13;19.50;;;;;;;;;;5160913;27;20456;-78
2022/10/19 02:03:32;;;;;;;21.20;19.73;;;;;;;;;;5160476;27;21051;-78
2022/10/19 02:06:00;;;;;;;21.57;20.30;;;;;;;;;;5160850;27;20463;-77
2022/10/19 02:08:29;;;;;;;21.70;20.23;;;;;;;;;;5160715;27;20466;-79
2022/10/19 02:10:58;;;;;;;20.97;19.03;;;;;;;;;;5160325;27;20926;-78
2022/10/19 02:13:25;;;;;;;19.73;18.60;;;;;;;;;;5160970;27;20813;-78
2022/10/19 02:15:55;;;;;;;20.53;18.93;;;;;;;;;;5161407;27;20449;-78
2022/10/19 02:18:26;;;;;;;20.67;19.10;;;;;;;;;;5160924;27;20423;-78
2022/10/19 02:20:53;;;;;;;20.43;18.83;;;;;;;;;;5161071;27;20424;-78
2022/10/19 02:23:22;;;;;;;21.17;19.73;;;;;;;;;;5160240;27;20459;-77
2022/10/19 02:25:50;;;;;;;21.40;20.00;;;;;;;;;;5160831;27;20440;-78
2022/10/19 02:28:17;;;;;;;24.63;22.43;;;;;;;;;;5160707;27;20452;-77
2022/10/19 02:30:44;;;;;;;20.80;19.50;;;;;;;;;;5160594;27;20423;-78
2022/10/19 02:33:12;;;;;;;20.83;19.20;;;;;;;;;;5160080;27;20962;-78
2022/10/19 02:35:41;;;;;;;22.73;20.17;;;;;;;;;;5161026;27;20423;-79
2022/10/19 02:38:10;;;;;;;20.93;19.63;;;;;;;;;;5161056;27;20427;-77
2022/10/19 02:40:40;;;;;;;21.20;19.80;;;;;;;;;;5158406;27;20425;-77
2022/10/19 02:43:11;;;;;;;21.47;20.03;;;;;;;;;;5156510;27;20478;-78
2022/10/19 02:45:40;;;;;;;21.30;19.80;;;;;;;;;;5157545;27;20429;-78
2022/10/19 02:48:10;;;;;;;21.83;20.33;;;;;;;;;;5157471;27;20481;-77
2022/10/19 02:50:37;;;;;;;21.40;20.00;;;;;;;;;;5157859;27;20442;-78
2022/10/19 02:53:06;;;;;;;21.93;20.40;;;;;;;;;;5156641;27;20447;-78
2022/10/19 02:55:33;;;;;;;20.93;19.73;;;;;;;;;;5156985;27;20435;-78
2022/10/19 02:58:01;;;;;;;21.80;20.20;;;;;;;;;;5157161;27;20417;-78
2022/10/19 03:00:28;;;;;;;24.27;21.73;;;;;;;;;;5157360;27;20931;-78
2022/10/19 03:02:55;;;;;;;22.27;20.37;;;;;;;;;;5156325;27;20501;-78
2022/10/19 03:05:23;;;;;;;23.17;20.97;;;;;;;;;;5157146;27;20489;-77
2022/10/19 03:07:50;;;;;;;24.83;20.90;;;;;;;;;;5157200;27;20478;-77
2022/10/19 03:10:19;;;;;;;22.57;20.50;;;;;;;;;;5157285;27;20914;-76
2022/10/19 03:12:46;;;;;;;23.27;21.77;;;;;;;;;;5156138;27;20488;-78
2022/10/19 03:15:15;;;;;;;22.97;20.90;;;;;;;;;;5157058;27;20838;-77
2022/10/19 03:17:43;;;;;;;23.40;21.20;;;;;;;;;;5156976;27;20484;-77
2022/10/19 03:20:10;;;;;;;21.70;20.23;;;;;;;;;;5158000;27;20424;-80
2022/10/19 03:22:38;;;;;;;22.57;20.97;;;;;;;;;;5159356;27;20803;-79
2022/10/19 03:25:05;;;;;;;24.37;21.80;;;;;;;;;;5159060;27;20461;-79
2022/10/19 03:27:34;;;;;;;22.90;21.10;;;;;;;;;;5159508;27;20441;-80
2022/10/19 03:30:02;;;;;;;22.00;20.50;;;;;;;;;;5159064;27;20436;-80
2022/10/19 03:32:29;;;;;;;22.93;21.17;;;;;;;;;;5159117;27;20980;-80
2022/10/19 03:34:57;;;;;;;22.57;20.77;;;;;;;;;;5159459;27;20818;-80
2022/10/19 03:37:24;;;;;;;23.10;21.07;;;;;;;;;;5159618;27;20448;-79
2022/10/19 03:39:51;;;;;;;22.97;20.97;;;;;;;;;;5159793;27;20442;-79
2022/10/19 03:42:19;;;;;;;22.83;20.83;;;;;;;;;;5158861;27;20442;-80
2022/10/19 03:44:48;;;;;;;24.53;22.03;;;;;;;;;;5159065;27;20430;-80
2022/10/19 03:47:15;;;;;;;22.93;21.10;;;;;;;;;;5159666;27;20427;-80
2022/10/19 03:49:43;;;;;;;22.30;20.53;;;;;;;;;;5158934;27;21031;-79
2022/10/19 03:52:10;;;;;;;22.20;20.60;;;;;;;;;;5158567;27;20452;-79
2022/10/19 03:54:38;;;;;;;21.37;19.97;;;;;;;;;;5158498;27;20458;-79
2022/10/19 03:57:05;;;;;;;22.50;20.80;;;;;;;;;;5159350;27;20427;-79
2022/10/19 03:59:32;;;;;;;22.20;20.70;;;;;;;;;;5159003;27;20416;-80
2022/10/19 04:02:01;;;;;;;22.53;20.90;;;;;;;;;;5158009;27;20446;-79
2022/10/19 04:04:28;;;;;;;22.00;20.67;;;;;;;;;;5158168;27;20462;-80
2022/10/19 04:06:56;;;;;;;22.93;20.90;;;;;;;;;;5158854;27;20423;-78
2022/10/19 04:09:23;;;;;;;22.00;20.60;;;;;;;;;;5158586;27;20555;-79
2022/10/19 04:11:51;;;;;;;22.67;21.00;;;;;;;;;;5157715;27;20453;-79
2022/10/19 04:14:19;;;;;;;22.97;20.80;;;;;;;;;;5158496;27;20480;-80
2022/10/19 04:16:46;;;;;;;21.37;19.77;;;;;;;;;;5159437;27;20452;-79
2022/10/19 04:19:16;;;;;;;22.13;20.70;;;;;;;;;;5158900;27;20441;-79
2022/10/19 04:21:43;;;;;;;21.37;19.97;;;;;;;;;;5158000;27;20449;-80
2022/10/19 04:24:11;;;;;;;22.13;20.50;;;;;;;;;;5157800;27;20487;-80
2022/10/19 04:26:40;;;;;;;21.37;20.17;;;;;;;;;;5158649;27;20480;-80
2022/10/19 04:29:07;;;;;;;21.87;20.57;;;;;;;;;;5158207;27;20489;-80
2022/10/19 04:31:35;;;;;;;21.63;20.23;;;;;;;;;;5158220;27;20417;-80
2022/10/19 04:34:02;;;;;;;21.93;20.40;;;;;;;;;;5158036;27;20467;-78
2022/10/19 04:36:31;;;;;;;21.30;19.87;;;;;;;;;;5158444;27;20450;-80
2022/10/19 04:38:58;;;;;;;22.63;21.03;;;;;;;;;;5157793;27;20442;-79
2022/10/19 04:41:26;;;;;;;21.57;20.37;;;;;;;;;;5157714;27;20451;-79
2022/10/19 04:43:56;;;;;;;21.77;20.23;;;;;;;;;;5157326;27;20455;-79
2022/10/19 04:46:23;;;;;;;21.87;20.30;;;;;;;;;;5158561;27;20453;-79
2022/10/19 04:48:50;;;;;;;21.90;20.47;;;;;;;;;;5157924;27;20480;-80
2022/10/19 04:51:18;;;;;;;23.50;21.20;;;;;;;;;;5157721;27;20460;-79
2022/10/19 04:53:47;;;;;;;21.77;20.27;;;;;;;;;;5157383;27;20483;-80
2022/10/19 04:56:15;;;;;;;23.37;21.57;;;;;;;;;;5158036;27;20453;-80
2022/10/19 04:58:42;;;;;;;22.30;20.80;;;;;;;;;;5158494;27;20419;-79
2022/10/19 05:01:10;;;;;;;23.90;21.87;;;;;;;;;;5157590;27;20427;-80
2022/10/19 05:03:37;;;;;;;22.33;20.93;;;;;;;;;;5157748;27;20504;-79
2022/10/19 05:06:05;;;;;;;22.47;21.17;;;;;;;;;;5158200;27;20449;-81
2022/10/19 05:08:33;;;;;;;22.90;21.17;;;;;;;;;;5158066;27;20984;-79
2022/10/19 05:11:06;;;;;;;22.50;21.10;;;;;;;;;;5157716;27;20449;-79
2022/10/19 05:13:33;;;;;;;23.13;21.00;;;;;;;;;;5156825;27;20990;-79
2022/10/19 05:16:01;;;;;;;22.73;20.93;;;;;;;;;;5157490;27;20473;-79
2022/10/19 05:18:29;;;;;;;23.30;21.47;;;;;;;;;;5157522;27;20452;-81
2022/10/19 05:21:01;;;;;;;22.20;20.70;;;;;;;;;;5157031;27;20441;-79
2022/10/19 05:23:28;;;;;;;22.37;21.00;;;;;;;;;;5151620;27;20486;-85
2022/10/19 05:25:59;;;;;;;22.30;20.60;;;;;;;;;;5136604;27;20425;-79
2022/10/19 05:28:28;;;;;;;23.13;21.43;;;;;;;;;;5133389;27;20483;-83
2022/10/19 05:30:56;;;;;;;24.00;22.20;;;;;;;;;;5130606;28;20876;-83
2022/10/19 05:33:23;;;;;;;24.87;22.93;;;;;;;;;;5136312;28;20473;-83
2022/10/19 05:35:50;;;;;;;24.80;22.90;;;;;;;;;;5137182;28;20440;-84
2022/10/19 05:38:18;;;;;;;25.63;23.63;;;;;;;;;;5137071;28;20764;-83
2022/10/19 05:40:45;;;;;;;24.60;22.77;;;;;;;;;;5136513;28;20910;-83
2022/10/19 05:43:13;;;;;;;25.70;23.90;;;;;;;;;;5135208;27;20453;-85
2022/10/19 05:45:42;;;;;;;25.10;23.30;;;;;;;;;;5135335;27;20417;-79
2022/10/19 05:48:09;;;;;;;26.20;24.03;;;;;;;;;;5136337;28;20417;-80
2022/10/19 05:50:36;;;;;;;27.93;25.70;;;;;;;;;;5136353;28;20449;-79
2022/10/19 05:53:04;;;;;;;27.83;25.73;;;;;;;;;;5134927;27;20457;-79
2022/10/19 05:55:35;;;;;;;26.93;24.67;;;;;;;;;;5135494;28;20424;-79
2022/10/19 05:58:02;;;;;;;27.47;25.30;;;;;;;;;;5135829;27;20445;-79
2022/10/19 06:00:29;;;;;;;27.87;25.60;;;;;;;;;;5136631;28;20424;-80
2022/10/19 06:02:58;;;;;;;27.63;25.53;;;;;;;;;;5134988;27;20456;-79
2022/10/19 06:05:25;;;;;;;27.93;26.00;;;;;;;;;;5135934;27;20413;-78
2022/10/19 06:07:53;;;;;;;27.80;25.50;;;;;;;;;;5136311;27;20417;-79
2022/10/19 06:10:21;;;;;;;28.13;26.23;;;;;;;;;;5135325;27;20997;-79
2022/10/19 06:12:48;;;;;;;25.93;24.10;;;;;;;;;;5134598;27;21089;-79
2022/10/19 06:15:15;;;;;;;27.27;25.17;;;;;;;;;;5136923;27;20477;-87
2022/10/19 06:17:43;;;;;;;29.07;26.50;;;;;;;;;;5140429;27;20428;-87
2022/10/19 06:20:12;;;;;;;28.97;26.23;;;;;;;;;;5140180;27;20798;-84
2022/10/19 06:22:41;;;;;;;28.57;26.27;;;;;;;;;;5138575;27;20445;-84
2022/10/19 06:25:08;;;;;;;30.40;27.70;;;;;;;;;;5138383;27;20455;-84
2022/10/19 06:27:36;;;;;;;31.10;28.33;;;;;;;;;;5140599;27;20435;-85
2022/10/19 06:30:04;;;;;;;29.80;27.00;;;;;;;;;;5140412;27;20453;-85
2022/10/19 06:32:32;;;;;;;28.80;25.90;;;;;;;;;;5140146;27;20448;-84
2022/10/19 06:35:00;;;;;;;28.50;26.33;;;;;;;;;;5139707;27;20448;-86
2022/10/19 06:37:28;;;;;;;31.90;29.30;;;;;;;;;;5140294;27;20413;-86
2022/10/19 06:39:56;;;;;;;31.37;28.83;;;;;;;;;;5140701;27;20443;-87
2022/10/19 06:42:23;;;;;;;29.00;26.90;;;;;;;;;;5140038;27;20488;-86
2022/10/19 06:44:51;;;;;;;31.80;28.97;;;;;;;;;;5140231;27;20412;-86
2022/10/19 06:47:18;;;;;;;29.47;27.27;;;;;;;;;;5140436;27;20417;-86
2022/10/19 06:49:45;;;;;;;28.77;26.23;;;;;;;;;;5139446;27;20448;-85
2022/10/19 06:52:13;;;;;;;28.97;26.50;;;;;;;;;;5139326;27;20413;-86
2022/10/19 06:54:42;;;;;;;28.97;26.40;;;;;;;;;;5139563;27;20476;-85
2022/10/19 06:57:09;;;;;;;30.03;27.67;;;;;;;;;;5140001;27;20453;-86
2022/10/19 06:59:36;;;;;;;29.43;27.27;;;;;;;;;;5140661;27;20446;-87
2022/10/19 07:02:04;;;;;;;30.67;27.90;;;;;;;;;;5139874;27;20450;-86
2022/10/19 07:04:31;;;;;;;30.83;28.30;;;;;;;;;;5139669;27;20483;-85
2022/10/19 07:06:58;;;;;;;30.93;28.30;;;;;;;;;;5139979;27;20459;-86
2022/10/19 07:09:25;;;;;;;32.80;30.00;;;;;;;;;;5139924;27;20467;-86
2022/10/19 07:11:54;;;;;;;32.03;29.77;;;;;;;;;;5139615;27;20431;-86
2022/10/19 07:14:23;;;;;;;31.50;28.60;;;;;;;;;;5139178;27;20472;-87
2022/10/19 07:16:51;;;;;;;32.13;29.40;;;;;;;;;;5139466;27;20421;-85
2022/10/19 07:19:18;;;;;;;32.67;30.07;;;;;;;;;;5139986;27;20405;-87
2022/10/19 07:21:46;;;;;;;32.13;29.07;;;;;;;;;;5140485;27;20446;-85
2022/10/19 07:24:13;;;;;;;32.90;29.77;;;;;;;;;;5138897;27;20466;-83
2022/10/19 07:26:41;;;;;;;33.77;30.73;;;;;;;;;;5137022;27;20445;-78
2022/10/19 07:29:09;;;;;;;32.20;29.67;;;;;;;;;;5138339;27;20482;-79
2022/10/19 07:31:37;;;;;;;30.83;28.33;;;;;;;;;;5135684;27;20469;-77
2022/10/19 07:34:05;;;;;;;31.23;28.63;;;;;;;;;;5136693;27;20475;-78
2022/10/19 07:36:34;;;;;;;31.77;29.27;;;;;;;;;;5136973;27;20462;-85
2022/10/19 07:39:01;;;;;;;33.30;30.50;;;;;;;;;;5136696;27;20447;-78
2022/10/19 07:41:29;;;;;;;34.30;31.40;;;;;;;;;;5135268;27;20450;-77
2022/10/19 07:43:56;;;;;;;32.97;30.30;;;;;;;;;;5134712;27;20471;-77
2022/10/19 07:46:27;;;;;;;33.27;30.37;;;;;;;;;;5135354;27;20945;-77
2022/10/19 07:48:55;;;;;;;30.33;27.87;;;;;;;;;;5134864;27;20445;-80
2022/10/19 07:51:23;;;;;;;31.77;29.17;;;;;;;;;;5135581;27;20850;-78
2022/10/19 07:53:50;;;;;;;34.13;31.33;;;;;;;;;;5135216;27;20977;-78
2022/10/19 07:56:19;;;;;;;32.50;29.67;;;;;;;;;;5136318;27;20450;-78
2022/10/19 07:58:46;;;;;;;34.90;31.33;;;;;;;;;;5135017;27;20475;-78
2022/10/19 08:01:14;;;;;;;33.43;30.77;;;;;;;;;;5135393;27;20402;-77
2022/10/19 08:03:43;;;;;;;32.27;29.53;;;;;;;;;;5134985;27;20441;-77
2022/10/19 08:06:12;;;;;;;33.60;30.27;;;;;;;;;;5136279;27;20446;-79
2022/10/19 08:08:39;;;;;;;32.00;29.50;;;;;;;;;;5137513;27;20454;-78
2022/10/19 08:11:10;;;;;;;33.60;30.60;;;;;;;;;;5135424;27;20838;-79
2022/10/19 08:13:39;;;;;;;30.40;28.10;;;;;;;;;;5136711;27;20453;-78
2022/10/19 08:16:07;;;;;;;31.27;28.67;;;;;;;;;;5134364;27;20794;-78
2022/10/19 08:18:34;;;;;;;28.50;26.30;;;;;;;;;;5135185;27;20939;-78
2022/10/19 08:21:04;;;;;;;31.33;29.03;;;;;;;;;;5134661;27;20482;-78
2022/10/19 08:23:31;;;;;;;29.30;27.00;;;;;;;;;;5133726;27;20995;-76
2022/10/19 08:25:59;;;;;;;30.40;27.77;;;;;;;;;;5133789;27;20829;-76
2022/10/19 08:28:26;;;;;;;29.67;27.13;;;;;;;;;;5134695;27;20451;-75
2022/10/19 08:30:57;;;;;;;25.80;23.90;;;;;;;;;;5134673;27;20485;-76
2022/10/19 08:33:25;;;;;;;24.27;21.83;;;;;;;;;;5135028;27;20452;-75
2022/10/19 08:35:53;;;;;;;26.47;24.17;;;;;;;;;;5134692;27;20421;-76
2022/10/19 08:38:21;;;;;;;23.80;21.97;;;;;;;;;;5133924;27;20814;-76
2022/10/19 08:40:49;;;;;;;25.30;23.47;;;;;;;;;;5134577;27;20833;-76
2022/10/19 08:43:21;;;;;;;23.10;21.50;;;;;;;;;;5133583;27;20465;-76
2022/10/19 08:45:52;;;;;;;23.33;21.37;;;;;;;;;;5134846;27;20410;-76
2022/10/19 08:48:25;;;;;;;21.37;19.50;;;;;;;;;;5134538;27;20438;-76
2022/10/19 08:50:53;;;;;;;18.30;17.10;;;;;;;;;;5133858;27;20454;-76
2022/10/19 08:53:25;;;;;;;17.07;16.27;;;;;;;;;;5133718;27;21028;-77
2022/10/19 08:55:57;;;;;;;18.80;17.60;;;;;;;;;;5134261;27;20413;-76
2022/10/19 08:58:31;;;;;;;19.00;17.67;;;;;;;;;;5134302;27;20435;-75
2022/10/19 09:01:01;;;;;;;19.33;18.13;;;;;;;;;;5135282;27;20402;-82
2022/10/19 09:03:32;;;;;;;19.70;18.30;;;;;;;;;;5140924;27;20457;-84
2022/10/19 09:06:05;;;;;;;19.20;17.80;;;;;;;;;;5137850;27;20474;-77
2022/10/19 09:08:34;;;;;;;20.37;19.03;;;;;;;;;;5134207;27;20435;-76
2022/10/19 09:11:02;;;;;;;21.07;19.77;;;;;;;;;;5133343;27;20457;-78
2022/10/19 09:13:35;;;;;;;20.30;18.93;;;;;;;;;;5133415;27;20445;-78
2022/10/19 09:16:03;;;;;;;20.87;19.57;;;;;;;;;;5133495;27;20440;-78
2022/10/19 09:18:32;;;;;;;23.00;21.10;;;;;;;;;;5133893;27;20421;-77
2022/10/19 09:21:03;;;;;;;25.10;23.10;;;;;;;;;;5133338;27;20524;-77
2022/10/19 09:23:35;;;;;;;21.33;20.03;;;;;;;;;;5133673;27;20444;-77
2022/10/19 09:26:04;;;;;;;22.00;20.03;;;;;;;;;;5133992;27;20405;-77
2022/10/19 09:28:36;;;;;;;21.10;19.70;;;;;;;;;;5136240;28;20443;-81
2022/10/19 09:31:04;;;;;;;24.00;21.90;;;;;;;;;;5138354;28;20474;-85
2022/10/19 09:33:33;;;;;;;21.13;19.93;;;;;;;;;;5135564;27;20487;-82
2022/10/19 09:36:01;;;;;;;21.00;19.70;;;;;;;;;;5134673;28;20417;-75
2022/10/19 09:38:30;;;;;;;21.40;19.57;;;;;;;;;;5133772;28;20425;-75
2022/10/19 09:40:58;;;;;;;21.03;19.63;;;;;;;;;;5133018;28;20443;-75
2022/10/19 09:43:27;;;;;;;20.90;19.70;;;;;;;;;;5133228;27;20491;-83
2022/10/19 09:45:56;;;;;;;20.93;19.53;;;;;;;;;;5133675;28;20476;-76
2022/10/19 09:48:27;;;;;;;21.40;20.00;;;;;;;;;;5133354;28;20439;-75
2022/10/19 09:50:56;;;;;;;20.93;19.40;;;;;;;;;;5136454;27;20438;-76
2022/10/19 09:53:25;;;;;;;20.83;19.70;;;;;;;;;;5137643;27;20968;-76
2022/10/19 09:55:57;;;;;;;20.57;19.27;;;;;;;;;;5137030;27;20998;-75
2022/10/19 09:58:27;;;;;;;20.70;19.43;;;;;;;;;;5137138;27;20478;-75
2022/10/19 10:00:55;;;;;;;21.37;19.73;;;;;;;;;;5137287;27;20443;-76
2022/10/19 10:03:24;;;;;;;20.60;19.03;;;;;;;;;;5137465;27;20455;-76
2022/10/19 10:05:51;;;;;;;21.20;19.90;;;;;;;;;;5137658;27;20482;-76
2022/10/19 10:08:20;;;;;;;21.60;20.40;;;;;;;;;;5138340;27;20919;-77
2022/10/19 10:10:48;;;;;;;22.10;20.27;;;;;;;;;;5138471;27;20453;-84
2022/10/19 10:13:18;;;;;;;21.83;20.43;;;;;;;;;;5142120;27;20466;-78
2022/10/19 10:15:48;;;;;;;20.83;19.63;;;;;;;;;;5137179;27;20458;-77
2022/10/19 10:18:16;;;;;;;21.07;19.80;;;;;;;;;;5136987;27;20450;-78
2022/10/19 10:20:57;;;;;;;22.83;20.50;;;;;;;;;;5137088;27;20444;-76
2022/10/19 10:23:25;;;;;;;21.13;20.00;;;;;;;;;;5137051;27;20463;-77
2022/10/19 10:25:55;;;;;;;21.10;19.70;;;;;;;;;;5136861;27;20441;-77
2022/10/19 10:28:23;;;;;;;21.40;20.03;;;;;;;;;;5137114;27;20447;-77
2022/10/19 10:30:54;;;;;;;21.20;19.87;;;;;;;;;;5136921;27;20964;-77
2022/10/19 10:33:24;;;;;;;20.70;19.50;;;;;;;;;;5136871;27;20464;-76
2022/10/19 10:35:54;;;;;;;21.57;20.03;;;;;;;;;;5137863;27;20441;-77
2022/10/19 10:38:24;;;;;;;21.60;19.80;;;;;;;;;;5136541;27;20905;-78
2022/10/19 10:40:52;;;;;;;21.53;19.90;;;;;;;;;;5136795;27;20546;-78
2022/10/19 10:43:22;;;;;;;21.80;20.03;;;;;;;;;;5137000;27;20467;-79
2022/10/19 10:45:51;;;;;;;21.10;19.80;;;;;;;;;;5137158;27;20413;-78
2022/10/19 10:48:28;;;;;;;22.17;20.67;;;;;;;;;;5136319;27;20413;-78
2022/10/19 10:50:55;;;;;;;21.33;19.93;;;;;;;;;;5135234;27;20503;-79
2022/10/19 10:53:43;;;;;;;21.10;19.70;;;;;;;;;;5136473;27;20461;-78
2022/10/19 10:56:21;;;;;;;22.13;20.43;;;;;;;;;;5133437;27;20983;-78
2022/10/19 10:58:50;;;;;;;20.13;18.93;;;;;;;;;;5137350;27;20930;-77
2022/10/19 11:01:20;;;;;;;21.57;20.07;;;;;;;;;;5135680;27;20447;-78
2022/10/19 11:03:52;;;;;;;21.03;19.70;;;;;;;;;;5135956;27;21009;-77
2022/10/19 11:06:20;;;;;;;20.87;19.67;;;;;;;;;;5136534;27;20429;-78
2022/10/19 11:08:49;;;;;;;21.20;19.80;;;;;;;;;;5136128;27;20761;-78
2022/10/19 11:11:18;;;;;;;22.10;20.33;;;;;;;;;;5135387;27;20490;-78
2022/10/19 11:13:49;;;;;;;21.03;19.70;;;;;;;;;;5136014;27;20449;-78
2022/10/19 11:16:17;;;;;;;20.53;19.33;;;;;;;;;;5135959;27;20438;-78
2022/10/19 11:18:46;;;;;;;21.60;20.00;;;;;;;;;;5135345;27;20469;-77
2022/10/19 11:21:18;;;;;;;20.30;19.20;;;;;;;;;;5135717;27;20420;-77
2022/10/19 11:23:52;;;;;;;21.10;20.00;;;;;;;;;;5136200;27;20829;-77
2022/10/19 11:26:26;;;;;;;22.40;20.87;;;;;;;;;;5136042;27;20433;-77
2022/10/19 11:29:01;;;;;;;22.17;20.87;;;;;;;;;;5135685;27;20453;-78
2022/10/19 11:31:35;;;;;;;22.30;21.00;;;;;;;;;;5135320;27;20441;-77
2022/10/19 11:34:05;;;;;;;22.47;20.87;;;;;;;;;;5136087;27;20446;-79
2022/10/19 11:36:41;;;;;;;21.73;20.23;;;;;;;;;;5135695;27;20435;-77
2022/10/19 11:39:24;;;;;;;22.00;20.47;;;;;;;;;;5136203;27;20403;-78
2022/10/19 11:41:59;;;;;;;21.43;20.10;;;;;;;;;;5135182;27;20483;-77
2022/10/19 11:44:31;;;;;;;21.40;20.10;;;;;;;;;;5135027;27;20490;-78
2022/10/19 11:47:05;;;;;;;21.80;20.30;;;;;;;;;;5135659;27;20425;-77
2022/10/19 11:49:41;;;;;;;21.50;20.10;;;;;;;;;;5135838;27;20678;-78
2022/10/19 11:52:16;;;;;;;22.27;20.83;;;;;;;;;;5134555;27;20483;-78
2022/10/19 11:54:50;;;;;;;22.07;20.73;;;;;;;;;;5135354;27;20435;-77
2022/10/19 11:57:20;;;;;;;22.40;20.80;;;;;;;;;;5135702;27;20406;-77
2022/10/19 11:59:54;;;;;;;20.90;19.60;;;;;;;;;;5135710;27;20430;-77
2022/10/19 12:02:34;;;;;;;20.87;19.47;;;;;;;;;;5134594;27;20405;-77
2022/10/19 12:05:02;;;;;;;21.20;19.90;;;;;;;;;;5135130;27;20937;-78
2022/10/19 12:07:37;;;;;;;22.27;20.87;;;;;;;;;;5135218;27;20422;-78
2022/10/19 12:10:11;;;;;;;22.30;20.90;;;;;;;;;;5135443;27;20431;-77
2022/10/19 12:12:39;;;;;;;22.73;21.23;;;;;;;;;;5134441;27;20466;-78
2022/10/19 12:15:17;;;;;;;22.57;20.70;;;;;;;;;;5134614;27;20441;-77
2022/10/19 12:17:47;;;;;;;21.60;20.30;;;;;;;;;;5135289;27;20878;-78
2022/10/19 12:20:19;;;;;;;22.20;20.53;;;;;;;;;;5134655;27;20417;-78
2022/10/19 12:22:48;;;;;;;22.23;20.60;;;;;;;;;;5134737;27;20445;-77
2022/10/19 12:25:17;;;;;;;22.53;21.20;;;;;;;;;;5134674;27;20442;-77
2022/10/19 12:27:46;;;;;;;22.40;20.87;;;;;;;;;;5134503;27;20473;-78
2022/10/19 12:30:15;;;;;;;21.50;20.30;;;;;;;;;;5138207;27;20966;-81
2022/10/19 12:32:50;;;;;;;22.40;21.20;;;;;;;;;;5134395;27;20468;-88
2022/10/19 12:35:22;;;;;;;22.90;21.60;;;;;;;;;;5136123;27;20393;-76
2022/10/19 12:37:55;;;;;;;22.10;20.70;;;;;;;;;;5134812;27;20442;-76
2022/10/19 12:40:26;;;;;;;22.10;20.70;;;;;;;;;;5134562;27;20887;-77
2022/10/19 12:42:57;;;;;;;22.43;21.00;;;;;;;;;;5133410;27;20953;-77
2022/10/19 12:45:29;;;;;;;22.43;21.13;;;;;;;;;;5134537;27;20791;-77
2022/10/19 12:48:14;;;;;;;22.80;21.30;;;;;;;;;;5134704;27;20770;-76
2022/10/19 12:51:02;;;;;;;21.87;20.57;;;;;;;;;;5134315;27;20819;-77
2022/10/19 12:53:34;;;;;;;22.50;21.00;;;;;;;;;;5133856;27;20487;-77
2022/10/19 12:56:03;;;;;;;22.00;20.70;;;;;;;;;;5134409;27;20417;-76
2022/10/19 12:58:33;;;;;;;21.83;20.43;;;;;;;;;;5134998;27;21032;-80
2022/10/19 13:01:01;;;;;;;21.77;20.37;;;;;;;;;;5136114;27;20924;-79
2022/10/19 13:03:31;;;;;;;23.33;21.30;;;;;;;;;;5136549;27;20450;-80
2022/10/19 13:05:58;;;;;;;22.43;20.83;;;;;;;;;;5136826;27;20421;-80
2022/10/19 13:08:28;;;;;;;21.63;20.13;;;;;;;;;;5137568;27;20449;-79
2022/10/19 13:11:08;;;;;;;21.60;20.10;;;;;;;;;;5136521;27;20450;-80
2022/10/19 13:13:52;;;;;;;21.03;19.80;;;;;;;;;;5137217;27;20498;-80
2022/10/19 13:16:38;;;;;;;21.33;19.93;;;;;;;;;;5136928;27;20405;-81
2022/10/19 13:19:18;;;;;;;21.30;20.00;;;;;;;;;;5137193;27;20841;-79
2022/10/19 13:22:00;;;;;;;21.87;20.30;;;;;;;;;;5136327;27;20427;-80
2022/10/19 13:24:35;;;;;;;22.57;21.07;;;;;;;;;;5136648;27;20496;-80
2022/10/19 13:27:22;;;;;;;23.20;21.80;;;;;;;;;;5136817;27;20421;-79
2022/10/19 13:29:51;;;;;;;22.87;21.10;;;;;;;;;;5136453;27;20885;-79
2022/10/19 13:32:36;;;;;;;21.87;20.47;;;;;;;;;;5136170;27;20445;-79
2022/10/19 13:35:22;;;;;;;23.20;21.87;;;;;;;;;;5137078;27;20440;-80
2022/10/19 13:38:04;;;;;;;22.20;20.97;;;;;;;;;;5137211;27;20452;-80
2022/10/19 13:40:31;;;;;;;23.10;21.60;;;;;;;;;;5136433;27;20422;-79
2022/10/19 13:42:59;;;;;;;22.30;20.87;;;;;;;;;;5135767;27;20486;-79
2022/10/19 13:45:28;;;;;;;22.10;20.90;;;;;;;;;;5138793;27;20432;-82
2022/10/19 13:47:59;;;;;;;23.40;21.90;;;;;;;;;;5136578;27;20414;-80
2022/10/19 13:50:31;;;;;;;22.83;21.43;;;;;;;;;;5136612;27;20397;-80
2022/10/19 13:53:04;;;;;;;23.27;21.50;;;;;;;;;;5135939;27;20469;-80
2022/10/19 13:55:49;;;;;;;23.20;21.90;;;;;;;;;;5136338;27;20435;-79
2022/10/19 13:58:31;;;;;;;22.90;21.50;;;;;;;;;;5135775;27;20481;-79
2022/10/19 14:01:06;;;;;;;22.87;21.47;;;;;;;;;;5135994;27;20420;-80
2022/10/19 14:03:44;;;;;;;22.50;21.20;;;;;;;;;;5136182;27;20441;-80
2022/10/19 14:06:16;;;;;;;22.17;20.90;;;;;;;;;;5135984;27;20435;-80
2022/10/19 14:08:59;;;;;;;23.10;21.50;;;;;;;;;;5134515;27;20449;-79
2022/10/19 14:11:28;;;;;;;23.47;21.97;;;;;;;;;;5135175;27;20477;-79
2022/10/19 14:14:12;;;;;;;23.43;22.03;;;;;;;;;;5134923;27;20817;-79
2022/10/19 14:16:47;;;;;;;23.40;21.60;;;;;;;;;;5135224;27;20430;-79
2022/10/19 14:19:15;;;;;;;23.40;21.87;;;;;;;;;;5135695;27;20640;-79
2022/10/19 14:21:42;;;;;;;24.13;22.10;;;;;;;;;;5134616;27;20509;-79
2022/10/19 14:24:20;;;;;;;22.57;21.27;;;;;;;;;;5134573;27;20486;-79
2022/10/19 14:26:47;;;;;;;22.43;21.03;;;;;;;;;;5135509;27;20478;-79
2022/10/19 14:29:15;;;;;;;23.30;21.80;;;;;;;;;;5135311;27;20447;-78
2022/10/19 14:31:42;;;;;;;23.23;21.47;;;;;;;;;;5134469;27;20479;-80